sensor_id;sensor_type;location;lat;lon;timestamp;temperature;humidity
780;DHT22;373;49.342;8.146;2023-05-16T00:00:51;14.00;1.00
780;DHT22;373;49.342;8.146;2023-05-16T00:03:20;13.90;1.00
780;DHT22;373;49.342;8.146;2023-05-16T00:05:47;14.10;1.00
780;DHT22;373;49.342;8.146;2023-05-16T00:08:15;14.00;1.00
780;DHT22;373;49.342;8.146;2023-05-16T00:10:42;14.00;1.00
780;DHT22;373;49.342;8.146;2023-05-16T00:13:09;14.00;1.00
780;DHT22;373;49.342;8.146;2023-05-16T00:15:37;14.00;1.00
780;DHT22;373;49.342;8.146;2023-05-16T00:18:04;13.80;1.00
780;DHT22;373;49.342;8.146;2023-05-16T00:20:33;13.80;1.00
780;DHT22;373;49.342;8.146;2023-05-16T00:23:00;13.60;1.00
780;DHT22;373;49.342;8.146;2023-05-16T00:25:27;13.70;1.00
780;DHT22;373;49.342;8.146;2023-05-16T00:27:54;13.70;1.00
780;DHT22;373;49.342;8.146;2023-05-16T00:30:21;13.70;1.00
780;DHT22;373;49.342;8.146;2023-05-16T00:32:51;13.70;1.00
780;DHT22;373;49.342;8.146;2023-05-16T00:35:18;13.80;1.00
780;DHT22;373;49.342;8.146;2023-05-16T00:37:46;13.80;1.00
780;DHT22;373;49.342;8.146;2023-05-16T00:40:13;13.90;1.00
780;DHT22;373;49.342;8.146;2023-05-16T00:42:41;13.80;1.00
780;DHT22;373;49.342;8.146;2023-05-16T00:45:09;13.70;1.00
780;DHT22;373;49.342;8.146;2023-05-16T00:47:36;13.50;1.00
780;DHT22;373;49.342;8.146;2023-05-16T00:50:04;13.60;1.00
780;DHT22;373;49.342;8.146;2023-05-16T00:52:32;13.60;1.00
780;DHT22;373;49.342;8.146;2023-05-16T00:55:01;13.60;1.00
780;DHT22;373;49.342;8.146;2023-05-16T00:57:28;13.50;1.00
780;DHT22;373;49.342;8.146;2023-05-16T00:59:56;13.40;3.50
780;DHT22;373;49.342;8.146;2023-05-16T01:02:23;13.30;5.20
780;DHT22;373;49.342;8.146;2023-05-16T01:04:53;13.30;18.90
780;DHT22;373;49.342;8.146;2023-05-16T01:07:23;13.20;23.90
780;DHT22;373;49.342;8.146;2023-05-16T01:09:53;13.30;26.30
780;DHT22;373;49.342;8.146;2023-05-16T01:12:28;13.20;32.10
780;DHT22;373;49.342;8.146;2023-05-16T01:15:01;13.00;51.90
780;DHT22;373;49.342;8.146;2023-05-16T01:17:37;13.10;40.00
780;DHT22;373;49.342;8.146;2023-05-16T01:20:16;13.30;25.30
780;DHT22;373;49.342;8.146;2023-05-16T01:22:56;13.20;19.30
780;DHT22;373;49.342;8.146;2023-05-16T01:25:38;13.10;38.20
780;DHT22;373;49.342;8.146;2023-05-16T01:28:15;13.10;42.90
780;DHT22;373;49.342;8.146;2023-05-16T01:30:43;13.20;33.70
780;DHT22;373;49.342;8.146;2023-05-16T01:33:10;13.20;32.50
780;DHT22;373;49.342;8.146;2023-05-16T01:35:42;13.20;20.70
780;DHT22;373;49.342;8.146;2023-05-16T01:38:16;13.30;17.80
780;DHT22;373;49.342;8.146;2023-05-16T01:40:52;13.10;44.90
780;DHT22;373;49.342;8.146;2023-05-16T01:43:28;13.10;40.40
780;DHT22;373;49.342;8.146;2023-05-16T01:46:01;13.20;33.50
780;DHT22;373;49.342;8.146;2023-05-16T01:48:33;13.30;16.50
780;DHT22;373;49.342;8.146;2023-05-16T01:51:02;13.50;1.00
780;DHT22;373;49.342;8.146;2023-05-16T01:53:36;13.70;1.00
780;DHT22;373;49.342;8.146;2023-05-16T01:56:09;13.70;1.00
780;DHT22;373;49.342;8.146;2023-05-16T01:58:39;13.70;1.00
780;DHT22;373;49.342;8.146;2023-05-16T02:01:07;13.50;1.00
780;DHT22;373;49.342;8.146;2023-05-16T02:03:36;13.60;1.00
780;DHT22;373;49.342;8.146;2023-05-16T02:06:03;13.50;1.00
780;DHT22;373;49.342;8.146;2023-05-16T02:08:30;13.30;1.00
780;DHT22;373;49.342;8.146;2023-05-16T02:10:57;13.10;12.00
780;DHT22;373;49.342;8.146;2023-05-16T02:13:25;12.90;43.40
780;DHT22;373;49.342;8.146;2023-05-16T02:15:53;12.90;42.30
780;DHT22;373;49.342;8.146;2023-05-16T02:18:20;12.80;48.20
780;DHT22;373;49.342;8.146;2023-05-16T02:20:48;13.00;42.00
780;DHT22;373;49.342;8.146;2023-05-16T02:23:15;13.20;17.90
780;DHT22;373;49.342;8.146;2023-05-16T02:25:42;13.30;10.10
780;DHT22;373;49.342;8.146;2023-05-16T02:28:09;13.10;25.30
780;DHT22;373;49.342;8.146;2023-05-16T02:30:36;13.20;13.10
780;DHT22;373;49.342;8.146;2023-05-16T02:33:05;12.90;47.80
780;DHT22;373;49.342;8.146;2023-05-16T02:35:32;13.10;39.30
780;DHT22;373;49.342;8.146;2023-05-16T02:37:59;13.00;42.60
780;DHT22;373;49.342;8.146;2023-05-16T02:40:26;13.10;25.00
780;DHT22;373;49.342;8.146;2023-05-16T02:42:53;12.80;33.00
780;DHT22;373;49.342;8.146;2023-05-16T02:45:20;12.70;85.20
780;DHT22;373;49.342;8.146;2023-05-16T02:47:50;12.60;91.70
780;DHT22;373;49.342;8.146;2023-05-16T02:50:19;12.50;90.60
780;DHT22;373;49.342;8.146;2023-05-16T02:52:47;12.50;99.40
780;DHT22;373;49.342;8.146;2023-05-16T02:55:16;12.70;59.80
780;DHT22;373;49.342;8.146;2023-05-16T02:57:47;12.60;91.10
780;DHT22;373;49.342;8.146;2023-05-16T03:00:16;12.60;71.60
780;DHT22;373;49.342;8.146;2023-05-16T03:02:44;12.60;69.90
780;DHT22;373;49.342;8.146;2023-05-16T03:05:12;12.80;57.90
780;DHT22;373;49.342;8.146;2023-05-16T03:07:41;12.80;62.00
780;DHT22;373;49.342;8.146;2023-05-16T03:10:11;12.90;20.70
780;DHT22;373;49.342;8.146;2023-05-16T03:12:38;12.80;22.80
780;DHT22;373;49.342;8.146;2023-05-16T03:15:07;12.80;51.70
780;DHT22;373;49.342;8.146;2023-05-16T03:17:38;13.00;23.30
780;DHT22;373;49.342;8.146;2023-05-16T03:20:09;13.20;1.00
780;DHT22;373;49.342;8.146;2023-05-16T03:22:39;13.10;1.00
780;DHT22;373;49.342;8.146;2023-05-16T03:25:21;13.20;1.00
780;DHT22;373;49.342;8.146;2023-05-16T03:27:50;13.30;1.00
780;DHT22;373;49.342;8.146;2023-05-16T03:30:22;13.10;1.00
780;DHT22;373;49.342;8.146;2023-05-16T03:32:50;13.30;1.00
780;DHT22;373;49.342;8.146;2023-05-16T03:35:22;13.00;12.70
780;DHT22;373;49.342;8.146;2023-05-16T03:37:52;13.20;1.00
780;DHT22;373;49.342;8.146;2023-05-16T03:40:22;13.40;1.00
780;DHT22;373;49.342;8.146;2023-05-16T03:42:53;12.90;5.40
780;DHT22;373;49.342;8.146;2023-05-16T03:45:20;12.90;29.60
780;DHT22;373;49.342;8.146;2023-05-16T03:47:48;12.90;10.70
780;DHT22;373;49.342;8.146;2023-05-16T03:50:16;12.80;48.80
780;DHT22;373;49.342;8.146;2023-05-16T03:52:44;12.90;31.20
780;DHT22;373;49.342;8.146;2023-05-16T03:55:12;12.80;41.20
780;DHT22;373;49.342;8.146;2023-05-16T03:57:42;12.70;50.40
780;DHT22;373;49.342;8.146;2023-05-16T04:00:10;12.50;61.20
780;DHT22;373;49.342;8.146;2023-05-16T04:02:39;12.50;56.70
780;DHT22;373;49.342;8.146;2023-05-16T04:05:07;12.60;68.60
780;DHT22;373;49.342;8.146;2023-05-16T04:07:35;12.70;99.90
780;DHT22;373;49.342;8.146;2023-05-16T04:10:03;13.20;99.90
780;DHT22;373;49.342;8.146;2023-05-16T04:12:35;13.10;1.00
780;DHT22;373;49.342;8.146;2023-05-16T04:15:05;13.10;15.00
780;DHT22;373;49.342;8.146;2023-05-16T04:17:34;13.20;1.00
780;DHT22;373;49.342;8.146;2023-05-16T04:20:06;13.50;1.00
780;DHT22;373;49.342;8.146;2023-05-16T04:22:38;13.50;1.00
780;DHT22;373;49.342;8.146;2023-05-16T04:25:07;13.60;1.00
780;DHT22;373;49.342;8.146;2023-05-16T04:27:34;13.50;1.00
780;DHT22;373;49.342;8.146;2023-05-16T04:30:01;13.60;1.00
780;DHT22;373;49.342;8.146;2023-05-16T04:32:30;13.50;1.00
780;DHT22;373;49.342;8.146;2023-05-16T04:35:00;13.40;1.00
780;DHT22;373;49.342;8.146;2023-05-16T04:37:27;13.30;1.00
780;DHT22;373;49.342;8.146;2023-05-16T04:39:54;13.10;1.00
780;DHT22;373;49.342;8.146;2023-05-16T04:42:21;13.00;1.00
780;DHT22;373;49.342;8.146;2023-05-16T04:44:48;12.90;1.00
780;DHT22;373;49.342;8.146;2023-05-16T04:47:15;13.10;1.00
780;DHT22;373;49.342;8.146;2023-05-16T04:49:44;13.00;1.00
780;DHT22;373;49.342;8.146;2023-05-16T04:52:11;13.00;1.00
780;DHT22;373;49.342;8.146;2023-05-16T04:54:38;13.00;1.00
780;DHT22;373;49.342;8.146;2023-05-16T04:57:05;13.10;1.00
780;DHT22;373;49.342;8.146;2023-05-16T04:59:33;13.20;1.00
780;DHT22;373;49.342;8.146;2023-05-16T05:02:01;13.30;1.00
780;DHT22;373;49.342;8.146;2023-05-16T05:04:28;13.40;1.00
780;DHT22;373;49.342;8.146;2023-05-16T05:06:57;13.50;1.00
780;DHT22;373;49.342;8.146;2023-05-16T05:09:24;13.70;1.00
780;DHT22;373;49.342;8.146;2023-05-16T05:11:51;13.70;1.00
780;DHT22;373;49.342;8.146;2023-05-16T05:14:18;13.70;1.00
780;DHT22;373;49.342;8.146;2023-05-16T05:16:46;14.10;1.00
780;DHT22;373;49.342;8.146;2023-05-16T05:19:13;14.30;1.00
780;DHT22;373;49.342;8.146;2023-05-16T05:21:40;14.10;1.00
780;DHT22;373;49.342;8.146;2023-05-16T05:24:08;14.20;1.00
780;DHT22;373;49.342;8.146;2023-05-16T05:26:36;14.30;1.00
780;DHT22;373;49.342;8.146;2023-05-16T05:29:03;14.40;1.00
780;DHT22;373;49.342;8.146;2023-05-16T05:31:30;13.90;1.00
780;DHT22;373;49.342;8.146;2023-05-16T05:33:58;13.90;1.00
780;DHT22;373;49.342;8.146;2023-05-16T05:36:28;13.90;1.00
780;DHT22;373;49.342;8.146;2023-05-16T05:38:55;14.10;1.00
780;DHT22;373;49.342;8.146;2023-05-16T05:41:24;14.10;1.00
780;DHT22;373;49.342;8.146;2023-05-16T05:43:51;14.10;1.00
780;DHT22;373;49.342;8.146;2023-05-16T05:46:18;14.30;1.00
780;DHT22;373;49.342;8.146;2023-05-16T05:48:45;14.50;99.90
780;DHT22;373;49.342;8.146;2023-05-16T05:51:12;14.70;1.00
780;DHT22;373;49.342;8.146;2023-05-16T05:53:39;14.90;1.00
780;DHT22;373;49.342;8.146;2023-05-16T05:56:07;14.80;1.00
780;DHT22;373;49.342;8.146;2023-05-16T05:58:35;15.00;99.90
780;DHT22;373;49.342;8.146;2023-05-16T06:01:02;14.80;36.10
780;DHT22;373;49.342;8.146;2023-05-16T06:03:30;14.70;99.90
780;DHT22;373;49.342;8.146;2023-05-16T06:05:56;14.40;1.00
780;DHT22;373;49.342;8.146;2023-05-16T06:08:24;14.50;1.00
780;DHT22;373;49.342;8.146;2023-05-16T06:10:51;14.50;1.00
780;DHT22;373;49.342;8.146;2023-05-16T06:13:18;14.60;1.00
780;DHT22;373;49.342;8.146;2023-05-16T06:15:50;14.30;1.00
780;DHT22;373;49.342;8.146;2023-05-16T06:18:17;14.20;99.90
780;DHT22;373;49.342;8.146;2023-05-16T06:20:45;14.10;99.90
780;DHT22;373;49.342;8.146;2023-05-16T06:23:12;14.00;99.90
780;DHT22;373;49.342;8.146;2023-05-16T06:25:39;14.00;99.90
780;DHT22;373;49.342;8.146;2023-05-16T06:28:06;13.90;99.90
780;DHT22;373;49.342;8.146;2023-05-16T06:30:33;13.90;99.90
780;DHT22;373;49.342;8.146;2023-05-16T06:33:02;14.00;99.90
780;DHT22;373;49.342;8.146;2023-05-16T06:35:29;14.10;99.90
780;DHT22;373;49.342;8.146;2023-05-16T06:37:56;14.30;99.90
780;DHT22;373;49.342;8.146;2023-05-16T06:40:23;14.00;99.90
780;DHT22;373;49.342;8.146;2023-05-16T06:42:50;13.90;99.90
780;DHT22;373;49.342;8.146;2023-05-16T06:45:17;13.90;99.90
780;DHT22;373;49.342;8.146;2023-05-16T06:47:45;14.00;99.90
780;DHT22;373;49.342;8.146;2023-05-16T06:50:14;13.80;99.90
780;DHT22;373;49.342;8.146;2023-05-16T06:52:41;13.60;1.00
780;DHT22;373;49.342;8.146;2023-05-16T06:55:08;13.90;99.90
780;DHT22;373;49.342;8.146;2023-05-16T06:57:36;14.00;99.90
780;DHT22;373;49.342;8.146;2023-05-16T07:00:03;13.80;26.40
780;DHT22;373;49.342;8.146;2023-05-16T07:02:31;13.70;99.40
780;DHT22;373;49.342;8.146;2023-05-16T07:04:58;13.60;99.90
780;DHT22;373;49.342;8.146;2023-05-16T07:07:26;13.90;1.00
780;DHT22;373;49.342;8.146;2023-05-16T07:09:53;14.10;94.90
780;DHT22;373;49.342;8.146;2023-05-16T07:12:20;14.00;99.90
780;DHT22;373;49.342;8.146;2023-05-16T07:14:47;14.00;1.00
780;DHT22;373;49.342;8.146;2023-05-16T07:17:14;13.90;1.00
780;DHT22;373;49.342;8.146;2023-05-16T07:19:42;14.00;1.00
780;DHT22;373;49.342;8.146;2023-05-16T07:22:09;14.00;99.90
780;DHT22;373;49.342;8.146;2023-05-16T07:24:38;14.10;1.00
780;DHT22;373;49.342;8.146;2023-05-16T07:27:05;14.10;99.90
780;DHT22;373;49.342;8.146;2023-05-16T07:29:32;13.90;1.00
780;DHT22;373;49.342;8.146;2023-05-16T07:32:00;14.00;99.90
780;DHT22;373;49.342;8.146;2023-05-16T07:34:27;13.80;1.00
780;DHT22;373;49.342;8.146;2023-05-16T07:36:55;13.70;1.00
780;DHT22;373;49.342;8.146;2023-05-16T07:39:23;13.60;1.00
780;DHT22;373;49.342;8.146;2023-05-16T07:41:52;13.70;99.90
780;DHT22;373;49.342;8.146;2023-05-16T07:44:20;13.70;1.00
780;DHT22;373;49.342;8.146;2023-05-16T07:46:47;13.60;1.00
780;DHT22;373;49.342;8.146;2023-05-16T07:49:14;13.60;99.90
780;DHT22;373;49.342;8.146;2023-05-16T07:51:41;13.60;85.00
780;DHT22;373;49.342;8.146;2023-05-16T07:54:08;13.60;99.90
780;DHT22;373;49.342;8.146;2023-05-16T07:56:36;13.60;99.90
780;DHT22;373;49.342;8.146;2023-05-16T07:59:04;13.70;1.00
780;DHT22;373;49.342;8.146;2023-05-16T08:01:31;13.70;99.90
780;DHT22;373;49.342;8.146;2023-05-16T08:03:58;13.70;1.00
780;DHT22;373;49.342;8.146;2023-05-16T08:06:30;13.60;99.90
780;DHT22;373;49.342;8.146;2023-05-16T08:08:59;13.40;99.90
780;DHT22;373;49.342;8.146;2023-05-16T08:11:27;13.30;1.00
780;DHT22;373;49.342;8.146;2023-05-16T08:13:54;13.40;99.90
780;DHT22;373;49.342;8.146;2023-05-16T08:16:22;13.20;1.00
780;DHT22;373;49.342;8.146;2023-05-16T08:18:49;13.10;99.90
780;DHT22;373;49.342;8.146;2023-05-16T08:21:17;13.30;69.70
780;DHT22;373;49.342;8.146;2023-05-16T08:23:44;13.40;1.00
780;DHT22;373;49.342;8.146;2023-05-16T08:26:12;13.50;43.20
780;DHT22;373;49.342;8.146;2023-05-16T08:28:39;13.50;99.90
780;DHT22;373;49.342;8.146;2023-05-16T08:31:06;13.40;1.00
780;DHT22;373;49.342;8.146;2023-05-16T08:33:34;13.30;1.00
780;DHT22;373;49.342;8.146;2023-05-16T08:36:02;13.20;1.00
780;DHT22;373;49.342;8.146;2023-05-16T08:38:30;13.40;1.00
780;DHT22;373;49.342;8.146;2023-05-16T08:40:58;13.30;99.90
780;DHT22;373;49.342;8.146;2023-05-16T08:43:25;13.20;99.90
780;DHT22;373;49.342;8.146;2023-05-16T08:45:52;13.30;1.00
780;DHT22;373;49.342;8.146;2023-05-16T08:48:22;13.20;99.90
780;DHT22;373;49.342;8.146;2023-05-16T08:50:51;13.20;99.90
780;DHT22;373;49.342;8.146;2023-05-16T08:53:21;13.10;1.00
780;DHT22;373;49.342;8.146;2023-05-16T08:55:48;13.10;1.00
780;DHT22;373;49.342;8.146;2023-05-16T08:58:16;13.20;51.00
780;DHT22;373;49.342;8.146;2023-05-16T09:00:44;13.10;99.90
780;DHT22;373;49.342;8.146;2023-05-16T09:03:12;12.90;99.90
780;DHT22;373;49.342;8.146;2023-05-16T09:05:40;13.10;99.90
780;DHT22;373;49.342;8.146;2023-05-16T09:08:10;13.20;99.90
780;DHT22;373;49.342;8.146;2023-05-16T09:10:38;13.00;12.90
780;DHT22;373;49.342;8.146;2023-05-16T09:13:05;13.10;99.90
780;DHT22;373;49.342;8.146;2023-05-16T09:15:33;13.10;99.90
780;DHT22;373;49.342;8.146;2023-05-16T09:18:00;13.30;1.00
780;DHT22;373;49.342;8.146;2023-05-16T09:20:27;13.40;99.90
780;DHT22;373;49.342;8.146;2023-05-16T09:22:56;13.40;77.70
780;DHT22;373;49.342;8.146;2023-05-16T09:25:27;13.30;1.00
780;DHT22;373;49.342;8.146;2023-05-16T09:27:55;13.30;99.90
780;DHT22;373;49.342;8.146;2023-05-16T09:30:28;13.30;1.00
780;DHT22;373;49.342;8.146;2023-05-16T09:32:56;13.30;99.90
780;DHT22;373;49.342;8.146;2023-05-16T09:35:23;13.20;99.50
780;DHT22;373;49.342;8.146;2023-05-16T09:37:50;13.20;1.00
780;DHT22;373;49.342;8.146;2023-05-16T09:40:19;13.30;12.20
780;DHT22;373;49.342;8.146;2023-05-16T09:43:01;13.10;99.90
780;DHT22;373;49.342;8.146;2023-05-16T09:45:28;13.00;99.90
780;DHT22;373;49.342;8.146;2023-05-16T09:48:00;13.00;99.90
780;DHT22;373;49.342;8.146;2023-05-16T09:50:27;12.90;1.00
780;DHT22;373;49.342;8.146;2023-05-16T09:52:55;13.00;1.00
780;DHT22;373;49.342;8.146;2023-05-16T09:55:22;13.10;99.90
780;DHT22;373;49.342;8.146;2023-05-16T09:57:51;13.10;99.90
780;DHT22;373;49.342;8.146;2023-05-16T10:00:18;13.10;99.90
780;DHT22;373;49.342;8.146;2023-05-16T10:02:46;13.10;1.00
780;DHT22;373;49.342;8.146;2023-05-16T10:05:15;13.10;1.00
780;DHT22;373;49.342;8.146;2023-05-16T10:07:43;13.20;1.00
780;DHT22;373;49.342;8.146;2023-05-16T10:10:11;13.10;1.00
780;DHT22;373;49.342;8.146;2023-05-16T10:12:40;13.20;1.00
780;DHT22;373;49.342;8.146;2023-05-16T10:15:09;13.30;1.00
780;DHT22;373;49.342;8.146;2023-05-16T10:17:39;13.20;99.90
780;DHT22;373;49.342;8.146;2023-05-16T10:20:09;13.20;1.00
780;DHT22;373;49.342;8.146;2023-05-16T10:22:41;13.10;1.00
780;DHT22;373;49.342;8.146;2023-05-16T10:25:14;13.10;99.90
780;DHT22;373;49.342;8.146;2023-05-16T10:27:43;13.00;1.00
780;DHT22;373;49.342;8.146;2023-05-16T10:30:12;13.00;1.00
780;DHT22;373;49.342;8.146;2023-05-16T10:32:42;13.00;1.00
780;DHT22;373;49.342;8.146;2023-05-16T10:35:10;12.90;1.00
780;DHT22;373;49.342;8.146;2023-05-16T10:37:38;12.90;1.00
780;DHT22;373;49.342;8.146;2023-05-16T10:40:07;13.10;94.10
780;DHT22;373;49.342;8.146;2023-05-16T10:42:35;13.10;99.90
780;DHT22;373;49.342;8.146;2023-05-16T10:45:15;12.90;1.00
780;DHT22;373;49.342;8.146;2023-05-16T10:47:50;12.70;99.90
780;DHT22;373;49.342;8.146;2023-05-16T10:50:33;12.80;99.90
780;DHT22;373;49.342;8.146;2023-05-16T10:53:19;12.70;1.00
780;DHT22;373;49.342;8.146;2023-05-16T10:56:05;12.80;1.00
780;DHT22;373;49.342;8.146;2023-05-16T10:58:40;12.70;99.90
780;DHT22;373;49.342;8.146;2023-05-16T11:01:20;12.70;1.00
780;DHT22;373;49.342;8.146;2023-05-16T11:06:50;12.90;99.90
780;DHT22;373;49.342;8.146;2023-05-16T11:09:23;12.80;1.00
780;DHT22;373;49.342;8.146;2023-05-16T11:11:56;13.00;99.90
780;DHT22;373;49.342;8.146;2023-05-16T11:14:26;13.00;24.70
780;DHT22;373;49.342;8.146;2023-05-16T11:17:01;12.90;1.00
780;DHT22;373;49.342;8.146;2023-05-16T11:19:34;12.80;99.90
780;DHT22;373;49.342;8.146;2023-05-16T11:22:06;12.90;99.90
780;DHT22;373;49.342;8.146;2023-05-16T11:24:34;12.90;25.10
780;DHT22;373;49.342;8.146;2023-05-16T11:27:02;12.90;1.00
780;DHT22;373;49.342;8.146;2023-05-16T11:29:30;12.90;1.00
780;DHT22;373;49.342;8.146;2023-05-16T11:32:00;12.90;1.00
780;DHT22;373;49.342;8.146;2023-05-16T11:34:29;12.80;83.40
780;DHT22;373;49.342;8.146;2023-05-16T11:36:56;12.70;1.00
780;DHT22;373;49.342;8.146;2023-05-16T11:39:24;12.70;1.00
780;DHT22;373;49.342;8.146;2023-05-16T11:41:52;12.70;1.00
780;DHT22;373;49.342;8.146;2023-05-16T11:44:20;12.80;99.90
780;DHT22;373;49.342;8.146;2023-05-16T11:46:47;12.70;99.90
780;DHT22;373;49.342;8.146;2023-05-16T11:49:16;12.80;1.00
780;DHT22;373;49.342;8.146;2023-05-16T11:51:44;12.70;99.90
780;DHT22;373;49.342;8.146;2023-05-16T11:54:11;12.80;99.90
780;DHT22;373;49.342;8.146;2023-05-16T11:56:39;12.70;99.90
780;DHT22;373;49.342;8.146;2023-05-16T11:59:07;12.70;99.90
780;DHT22;373;49.342;8.146;2023-05-16T12:01:36;12.90;1.00
780;DHT22;373;49.342;8.146;2023-05-16T12:04:07;13.00;1.00
780;DHT22;373;49.342;8.146;2023-05-16T12:06:35;12.80;99.90
780;DHT22;373;49.342;8.146;2023-05-16T12:09:03;12.70;99.90
780;DHT22;373;49.342;8.146;2023-05-16T12:11:36;12.70;99.90
780;DHT22;373;49.342;8.146;2023-05-16T12:14:04;12.70;99.90
780;DHT22;373;49.342;8.146;2023-05-16T12:16:32;12.90;99.90
780;DHT22;373;49.342;8.146;2023-05-16T12:18:59;13.00;99.90
780;DHT22;373;49.342;8.146;2023-05-16T12:21:27;13.10;1.00
780;DHT22;373;49.342;8.146;2023-05-16T12:23:56;12.90;99.90
780;DHT22;373;49.342;8.146;2023-05-16T12:26:24;13.00;99.90
780;DHT22;373;49.342;8.146;2023-05-16T12:28:56;13.00;99.90
780;DHT22;373;49.342;8.146;2023-05-16T12:31:26;13.10;99.90
780;DHT22;373;49.342;8.146;2023-05-16T12:33:53;13.00;99.90
780;DHT22;373;49.342;8.146;2023-05-16T12:36:21;13.10;99.90
780;DHT22;373;49.342;8.146;2023-05-16T12:38:48;13.40;95.00
780;DHT22;373;49.342;8.146;2023-05-16T12:41:19;13.60;1.00
780;DHT22;373;49.342;8.146;2023-05-16T12:43:46;13.70;1.00
780;DHT22;373;49.342;8.146;2023-05-16T12:46:14;13.60;1.00
780;DHT22;373;49.342;8.146;2023-05-16T12:48:41;13.60;1.00
780;DHT22;373;49.342;8.146;2023-05-16T12:51:12;14.10;1.00
780;DHT22;373;49.342;8.146;2023-05-16T12:53:41;14.10;1.00
780;DHT22;373;49.342;8.146;2023-05-16T12:56:10;14.10;99.90
780;DHT22;373;49.342;8.146;2023-05-16T12:58:39;13.90;99.90
780;DHT22;373;49.342;8.146;2023-05-16T13:01:07;13.90;99.90
780;DHT22;373;49.342;8.146;2023-05-16T13:03:35;14.00;99.90
780;DHT22;373;49.342;8.146;2023-05-16T13:06:02;14.20;99.90
780;DHT22;373;49.342;8.146;2023-05-16T13:08:31;14.20;99.90
780;DHT22;373;49.342;8.146;2023-05-16T13:10:58;14.00;99.90
780;DHT22;373;49.342;8.146;2023-05-16T13:13:26;14.30;99.90
780;DHT22;373;49.342;8.146;2023-05-16T13:15:54;14.30;99.90
780;DHT22;373;49.342;8.146;2023-05-16T13:18:22;14.10;99.90
780;DHT22;373;49.342;8.146;2023-05-16T13:20:49;14.30;99.90
780;DHT22;373;49.342;8.146;2023-05-16T13:23:17;14.50;99.90
780;DHT22;373;49.342;8.146;2023-05-16T13:25:44;14.50;99.90
780;DHT22;373;49.342;8.146;2023-05-16T13:28:12;14.70;99.90
780;DHT22;373;49.342;8.146;2023-05-16T13:30:39;14.90;99.90
780;DHT22;373;49.342;8.146;2023-05-16T13:33:07;15.00;99.90
780;DHT22;373;49.342;8.146;2023-05-16T13:35:35;14.70;99.90
780;DHT22;373;49.342;8.146;2023-05-16T13:38:03;14.80;99.90
780;DHT22;373;49.342;8.146;2023-05-16T13:40:30;15.20;99.90
780;DHT22;373;49.342;8.146;2023-05-16T13:42:57;15.60;99.90
780;DHT22;373;49.342;8.146;2023-05-16T13:45:26;15.40;99.90
780;DHT22;373;49.342;8.146;2023-05-16T13:47:53;15.70;99.90
780;DHT22;373;49.342;8.146;2023-05-16T13:50:21;15.60;99.90
780;DHT22;373;49.342;8.146;2023-05-16T13:52:48;15.80;99.90
780;DHT22;373;49.342;8.146;2023-05-16T13:55:16;15.50;99.90
780;DHT22;373;49.342;8.146;2023-05-16T13:57:44;15.80;99.90
780;DHT22;373;49.342;8.146;2023-05-16T14:00:11;15.70;99.90
780;DHT22;373;49.342;8.146;2023-05-16T14:02:39;15.90;99.90
780;DHT22;373;49.342;8.146;2023-05-16T14:05:06;16.00;99.90
780;DHT22;373;49.342;8.146;2023-05-16T14:07:35;15.50;99.90
780;DHT22;373;49.342;8.146;2023-05-16T14:10:02;15.50;99.90
780;DHT22;373;49.342;8.146;2023-05-16T14:12:31;15.80;99.90
780;DHT22;373;49.342;8.146;2023-05-16T14:14:58;16.20;99.90
780;DHT22;373;49.342;8.146;2023-05-16T14:17:25;16.40;99.90
780;DHT22;373;49.342;8.146;2023-05-16T14:19:52;16.10;99.90
780;DHT22;373;49.342;8.146;2023-05-16T14:22:19;16.00;99.90
780;DHT22;373;49.342;8.146;2023-05-16T14:24:48;15.90;99.90
780;DHT22;373;49.342;8.146;2023-05-16T14:27:15;15.50;99.90
780;DHT22;373;49.342;8.146;2023-05-16T14:29:44;15.60;99.90
780;DHT22;373;49.342;8.146;2023-05-16T14:32:13;15.60;99.90
780;DHT22;373;49.342;8.146;2023-05-16T14:34:40;15.70;99.90
780;DHT22;373;49.342;8.146;2023-05-16T14:37:07;15.80;99.90
780;DHT22;373;49.342;8.146;2023-05-16T14:39:36;16.40;99.90
780;DHT22;373;49.342;8.146;2023-05-16T14:42:05;16.40;99.90
780;DHT22;373;49.342;8.146;2023-05-16T14:44:32;16.40;99.90
780;DHT22;373;49.342;8.146;2023-05-16T14:46:59;16.10;99.90
780;DHT22;373;49.342;8.146;2023-05-16T14:49:26;16.20;99.90
780;DHT22;373;49.342;8.146;2023-05-16T14:51:53;16.00;99.90
780;DHT22;373;49.342;8.146;2023-05-16T14:54:21;16.10;99.80
780;DHT22;373;49.342;8.146;2023-05-16T14:56:48;16.40;94.70
780;DHT22;373;49.342;8.146;2023-05-16T14:59:16;16.60;95.70
780;DHT22;373;49.342;8.146;2023-05-16T15:01:43;16.80;90.50
780;DHT22;373;49.342;8.146;2023-05-16T15:04:10;16.70;81.10
780;DHT22;373;49.342;8.146;2023-05-16T15:06:37;16.50;77.60
780;DHT22;373;49.342;8.146;2023-05-16T15:09:05;16.20;72.40
780;DHT22;373;49.342;8.146;2023-05-16T15:11:33;16.00;71.60
780;DHT22;373;49.342;8.146;2023-05-16T15:14:00;15.80;70.40
780;DHT22;373;49.342;8.146;2023-05-16T15:16:30;16.00;69.50
780;DHT22;373;49.342;8.146;2023-05-16T15:18:57;16.00;67.10
780;DHT22;373;49.342;8.146;2023-05-16T15:21:24;15.90;66.20
780;DHT22;373;49.342;8.146;2023-05-16T15:23:51;15.90;59.70
780;DHT22;373;49.342;8.146;2023-05-16T15:26:20;15.90;58.50
780;DHT22;373;49.342;8.146;2023-05-16T15:28:47;16.20;59.60
780;DHT22;373;49.342;8.146;2023-05-16T15:31:15;16.20;55.80
780;DHT22;373;49.342;8.146;2023-05-16T15:33:43;16.30;57.50
780;DHT22;373;49.342;8.146;2023-05-16T15:36:10;16.20;53.80
780;DHT22;373;49.342;8.146;2023-05-16T15:38:37;16.20;55.80
780;DHT22;373;49.342;8.146;2023-05-16T15:41:08;16.40;57.00
780;DHT22;373;49.342;8.146;2023-05-16T15:43:36;16.50;59.60
780;DHT22;373;49.342;8.146;2023-05-16T15:46:05;16.40;57.90
780;DHT22;373;49.342;8.146;2023-05-16T15:48:34;16.30;54.20
780;DHT22;373;49.342;8.146;2023-05-16T15:51:02;16.60;52.50
780;DHT22;373;49.342;8.146;2023-05-16T15:53:30;16.50;50.20
780;DHT22;373;49.342;8.146;2023-05-16T15:55:57;16.40;45.00
780;DHT22;373;49.342;8.146;2023-05-16T15:58:24;16.50;44.00
780;DHT22;373;49.342;8.146;2023-05-16T16:00:51;16.10;41.30
780;DHT22;373;49.342;8.146;2023-05-16T16:03:19;16.10;38.90
780;DHT22;373;49.342;8.146;2023-05-16T16:05:47;16.10;38.90
780;DHT22;373;49.342;8.146;2023-05-16T16:08:15;16.10;37.70
780;DHT22;373;49.342;8.146;2023-05-16T16:10:42;16.20;39.80
780;DHT22;373;49.342;8.146;2023-05-16T16:13:09;15.90;38.30
780;DHT22;373;49.342;8.146;2023-05-16T16:15:37;15.90;40.80
780;DHT22;373;49.342;8.146;2023-05-16T16:18:05;15.80;39.40
780;DHT22;373;49.342;8.146;2023-05-16T16:20:33;15.80;42.00
780;DHT22;373;49.342;8.146;2023-05-16T16:23:00;15.80;43.60
780;DHT22;373;49.342;8.146;2023-05-16T16:25:28;15.90;44.10
780;DHT22;373;49.342;8.146;2023-05-16T16:27:55;15.90;42.20
780;DHT22;373;49.342;8.146;2023-05-16T16:30:25;15.80;42.50
780;DHT22;373;49.342;8.146;2023-05-16T16:32:52;15.90;41.60
780;DHT22;373;49.342;8.146;2023-05-16T16:35:19;15.90;42.30
780;DHT22;373;49.342;8.146;2023-05-16T16:37:50;16.10;40.90
780;DHT22;373;49.342;8.146;2023-05-16T16:40:17;16.10;42.00
780;DHT22;373;49.342;8.146;2023-05-16T16:42:45;16.10;41.50
780;DHT22;373;49.342;8.146;2023-05-16T16:45:12;16.00;39.60
780;DHT22;373;49.342;8.146;2023-05-16T16:47:40;16.10;40.60
780;DHT22;373;49.342;8.146;2023-05-16T16:50:08;16.00;37.70
780;DHT22;373;49.342;8.146;2023-05-16T16:52:35;16.00;37.10